Presque Isle, ME

5:52 PM EDT on April 24, 2017 (GMT -0400)
Northern Maine Regional At Presque Isle

Weather History for KPQI - November, 2013

Change the Weather History Date:

Friday, November 1, 2013

  Actual Average Record
Temperature  
Mean Temperature 56 °F -  
Max Temperature 62 °F 47 °F 69 °F (1956)
Min Temperature 51 °F 30 °F 11 °F (1972)
Degree Days  
Heating Degree Days 8    
Growing Degree Days 6 (Base 50)    
Moisture  
Dew Point 51 °F    
Average Humidity 79    
Maximum Humidity 88    
Minimum Humidity 48    
Precipitation  
Precipitation 0.22 in - - ()
Sea Level Pressure  
Sea Level Pressure 29.32 in    
Wind  
Wind Speed 15 mph (SSW)    
Max Wind Speed 29 mph    
Max Gust Speed 41 mph    
Visibility 10 miles    
Events      
Averages and records for this station are not official NWS values.
T = Trace of Precipitation, MM = Missing Value Source: NWS Daily Summary

Daily Weather History Graph

Daily Weather History Graph

Search for Another Location

Airport or City:

Trip Planner

Search our weather history database for the weather conditions in past years. The results will help you decide how hot, cold, wet, or windy it might be!

Date:

Astronomy

Nov. 01, 2013 Rise Set
Actual Time 7:14 AM EDT 5:16 PM EDT
Civil Twilight 6:42 AM EDT 5:47 PM EDT
Nautical Twilight 6:07 AM EDT 6:23 PM EDT
Astronomical Twilight 5:31 AM EDT 6:58 PM EDT
Moon 4:56 AM EDT (11/1) 4:12 PM EDT (11/1)
Length of Visible Light 11h 05m
Length of Day
10h 01m
Waning Crescent, 4% of the Moon is Illuminated
Nov 1
Waning Crescent
Nov 3
New
Nov 10
First Quarter
Nov 17
Full
Nov 25
Last Quarter

Hourly Weather History & Observations

Time (EDT) Temp. Dew Point Humidity Pressure Visibility Wind Dir Wind Speed Gust Speed Precip Events Conditions
12:15 AM 51.8 °F 46.4 °F 82% 29.63 in 10.0 mi South 13.8 mph 19.6 mph N/A   Overcast
12:35 AM 51.8 °F 46.4 °F 82% 29.63 in 10.0 mi South 13.8 mph - 0.01 in   Overcast
12:55 AM 51.8 °F 46.4 °F 82% 29.62 in 10.0 mi South 12.7 mph - 0.01 in   Overcast
1:15 AM 51.8 °F 48.2 °F 88% 29.61 in 10.0 mi South 12.7 mph 17.3 mph N/A   Overcast
1:35 AM 51.8 °F 48.2 °F 88% 29.60 in 10.0 mi South 15.0 mph 19.6 mph N/A   Overcast
1:55 AM 51.8 °F 48.2 °F 88% 29.60 in 10.0 mi South 12.7 mph 19.6 mph N/A   Overcast
2:15 AM 53.6 °F 48.2 °F 82% 29.58 in 10.0 mi South 15.0 mph - N/A   Overcast
2:35 AM 53.6 °F 48.2 °F 82% 29.58 in 10.0 mi South 12.7 mph - 0.01 in   Mostly Cloudy
2:55 AM 53.6 °F 48.2 °F 82% 29.56 in 10.0 mi South 13.8 mph 18.4 mph 0.02 in   Overcast
3:15 AM 53.6 °F 48.2 °F 82% 29.55 in 10.0 mi South 12.7 mph 21.9 mph 0.01 in   Mostly Cloudy
3:35 AM 53.6 °F 48.2 °F 82% 29.53 in 10.0 mi South 15.0 mph 21.9 mph 0.01 in   Overcast
3:55 AM 53.6 °F 48.2 °F 82% 29.52 in 10.0 mi South 16.1 mph 23.0 mph 0.01 in   Overcast
4:15 AM 53.6 °F 50.0 °F 88% 29.51 in 10.0 mi South 15.0 mph 19.6 mph N/A   Overcast
4:35 AM 53.6 °F 50.0 °F 88% 29.49 in 10.0 mi South 13.8 mph 19.6 mph N/A   Mostly Cloudy
4:55 AM 55.4 °F 50.0 °F 82% 29.48 in 10.0 mi South 11.5 mph - N/A   Overcast
5:15 AM 55.4 °F 51.8 °F 88% 29.46 in 10.0 mi South 10.4 mph - N/A   Overcast
5:35 AM 55.4 °F 51.8 °F 88% 29.45 in 10.0 mi South 13.8 mph - N/A   Overcast
5:55 AM 55.4 °F 51.8 °F 88% 29.44 in 10.0 mi South 15.0 mph 24.2 mph N/A   Overcast
6:15 AM 55.4 °F 51.8 °F 88% 29.43 in 10.0 mi SSW 16.1 mph 23.0 mph N/A   Overcast
6:35 AM 55.4 °F 51.8 °F 88% 29.42 in 10.0 mi South 13.8 mph 20.7 mph N/A   Overcast
6:55 AM 55.4 °F 51.8 °F 88% 29.41 in 9.0 mi South 13.8 mph - 0.01 in   Mostly Cloudy
7:15 AM 55.4 °F 51.8 °F 88% 29.40 in 10.0 mi South 10.4 mph - 0.03 in   Overcast
7:35 AM 55.4 °F 51.8 °F 88% 29.39 in 9.0 mi South 10.4 mph - 0.05 in   Mostly Cloudy
7:55 AM 57.2 °F 51.8 °F 82% 29.39 in 7.0 mi South 12.7 mph 18.4 mph 0.07 in   Mostly Cloudy
8:15 AM 57.2 °F 51.8 °F 82% 29.38 in 10.0 mi South 13.8 mph - 0.01 in   Overcast
8:35 AM 57.2 °F 53.6 °F 88% 29.37 in 10.0 mi South 12.7 mph 17.3 mph 0.02 in   Overcast
8:55 AM 57.2 °F 53.6 °F 88% 29.35 in 5.0 mi South 13.8 mph 19.6 mph 0.02 in   Mostly Cloudy
9:15 AM 57.2 °F 53.6 °F 88% 29.34 in 3.0 mi South 11.5 mph - 0.01 in   Overcast
9:35 AM 57.2 °F 53.6 °F 88% 29.33 in 5.0 mi South 12.7 mph - 0.02 in   Overcast
9:55 AM 57.2 °F 53.6 °F 88% 29.32 in 7.0 mi South 13.8 mph 20.7 mph 0.03 in   Overcast
10:15 AM 57.2 °F 53.6 °F 88% 29.31 in 10.0 mi South 15.0 mph - N/A   Mostly Cloudy
10:35 AM 57.2 °F 53.6 °F 88% 29.29 in 10.0 mi South 15.0 mph - 0.01 in   Overcast
10:55 AM 59.0 °F 53.6 °F 82% 29.28 in 10.0 mi South 17.3 mph 25.3 mph 0.02 in   Overcast
11:15 AM 59.0 °F 53.6 °F 82% 29.27 in 10.0 mi South 18.4 mph 25.3 mph N/A   Overcast
11:35 AM 60.8 °F 55.4 °F 82% 29.26 in 10.0 mi South 17.3 mph 25.3 mph N/A   Overcast
11:55 AM 60.8 °F 55.4 °F 82% 29.24 in 10.0 mi South 24.2 mph 31.1 mph N/A   Overcast
12:15 PM 60.8 °F 55.4 °F 82% 29.24 in 10.0 mi South 18.4 mph 24.2 mph N/A   Overcast
12:35 PM 62.6 °F 55.4 °F 77% 29.23 in 10.0 mi South 17.3 mph 25.3 mph N/A   Overcast
12:55 PM 62.6 °F 55.4 °F 77% 29.21 in 10.0 mi SSW 19.6 mph 25.3 mph N/A   Overcast
1:15 PM 62.6 °F 55.4 °F 77% 29.20 in 10.0 mi South 17.3 mph 24.2 mph N/A   Overcast
1:35 PM 62.6 °F 55.4 °F 77% 29.20 in 10.0 mi South 18.4 mph 27.6 mph N/A   Overcast
1:55 PM 62.6 °F 55.4 °F 77% 29.20 in 8.0 mi SSW 19.6 mph 24.2 mph N/A   Overcast
2:15 PM 60.8 °F 55.4 °F 82% 29.20 in 10.0 mi SSW 17.3 mph 28.8 mph 0.03 in   Overcast
2:35 PM 60.8 °F 57.2 °F 88% 29.15 in 10.0 mi South 12.7 mph - 0.03 in   Overcast
2:55 PM 60.8 °F 55.4 °F 82% 29.11 in 10.0 mi South 13.8 mph 21.9 mph 0.03 in   Overcast
3:15 PM 60.8 °F 55.4 °F 82% 29.11 in 10.0 mi South 15.0 mph - N/A   Mostly Cloudy
3:35 PM 62.6 °F 55.4 °F 77% 29.12 in 10.0 mi SW 12.7 mph - N/A   Scattered Clouds
3:55 PM 62.6 °F 55.4 °F 77% 29.13 in 10.0 mi SSW 15.0 mph 23.0 mph N/A   Overcast
4:15 PM 62.6 °F 55.4 °F 77% 29.13 in 10.0 mi SSW 16.1 mph 23.0 mph N/A   Mostly Cloudy
4:35 PM 60.8 °F 53.6 °F 77% 29.13 in 10.0 mi South 16.1 mph 20.7 mph N/A   Scattered Clouds
4:55 PM 60.8 °F 53.6 °F 77% 29.14 in 10.0 mi SSW 15.0 mph 21.9 mph N/A   Scattered Clouds
5:15 PM 60.8 °F 53.6 °F 77% 29.14 in 10.0 mi SSW 15.0 mph 20.7 mph N/A   Clear
5:35 PM 60.8 °F 53.6 °F 77% 29.15 in 10.0 mi SSW 12.7 mph 21.9 mph N/A   Partly Cloudy
5:55 PM 60.8 °F 53.6 °F 77% 29.16 in 10.0 mi South 15.0 mph 19.6 mph N/A   Mostly Cloudy
6:15 PM 60.8 °F 53.6 °F 77% 29.17 in 10.0 mi SSW 15.0 mph 20.7 mph N/A   Mostly Cloudy
6:35 PM 60.8 °F 51.8 °F 72% 29.17 in 10.0 mi SSW 12.7 mph - N/A   Overcast
6:55 PM 59.0 °F 53.6 °F 82% 29.18 in 10.0 mi SSW 12.7 mph 18.4 mph N/A   Mostly Cloudy
7:15 PM 59.0 °F 51.8 °F 77% 29.18 in 10.0 mi SSW 13.8 mph 18.4 mph N/A   Overcast
7:35 PM 59.0 °F 51.8 °F 77% 29.19 in 10.0 mi SW 11.5 mph 18.4 mph N/A   Overcast
7:55 PM 57.2 °F 51.8 °F 82% 29.18 in 10.0 mi SW 9.2 mph 21.9 mph N/A   Overcast
8:15 PM 57.2 °F 51.8 °F 82% 29.18 in 10.0 mi SW 12.7 mph 18.4 mph N/A   Mostly Cloudy
8:35 PM 59.0 °F 51.8 °F 77% 29.18 in 10.0 mi SW 12.7 mph - N/A   Overcast
8:55 PM 59.0 °F 46.4 °F 63% 29.19 in 10.0 mi WSW 23.0 mph 28.8 mph N/A   Mostly Cloudy
9:15 PM 59.0 °F 42.8 °F 55% 29.21 in 10.0 mi WSW 18.4 mph 39.1 mph N/A   Mostly Cloudy
9:35 PM 59.0 °F 42.8 °F 55% 29.22 in 10.0 mi WSW 19.6 mph 29.9 mph N/A   Overcast
9:55 PM 59.0 °F 39.2 °F 48% 29.23 in 10.0 mi WSW 23.0 mph 39.1 mph N/A   Overcast
10:15 PM 57.2 °F 39.2 °F 51% 29.25 in 10.0 mi WSW 20.7 mph 28.8 mph N/A   Overcast
10:35 PM 57.2 °F 39.2 °F 51% 29.26 in 10.0 mi WSW 20.7 mph 33.4 mph N/A   Unknown
10:55 PM 57.2 °F 39.2 °F 51% 29.27 in 10.0 mi WSW 28.8 mph 41.4 mph N/A   Overcast
11:35 PM 55.4 °F 37.4 °F 51% 29.32 in 10.0 mi WSW 18.4 mph 36.8 mph N/A   Unknown
11:55 PM 53.6 °F 35.6 °F 51% 29.34 in 10.0 mi West 19.6 mph 38.0 mph N/A   Mostly Cloudy